sensor_id;sensor_type;location;lat;lon;timestamp;P1;durP1;ratioP1;P2;durP2;ratioP2
4646;SDS011;2336;47.822;7.564;2024-03-08T00:01:15;19.20;;;15.10;;
4646;SDS011;2336;47.822;7.564;2024-03-08T00:03:44;19.93;;;16.37;;
4646;SDS011;2336;47.822;7.564;2024-03-08T00:06:10;23.47;;;17.97;;
4646;SDS011;2336;47.822;7.564;2024-03-08T00:08:39;21.43;;;16.50;;
4646;SDS011;2336;47.822;7.564;2024-03-08T00:11:05;19.10;;;15.80;;
4646;SDS011;2336;47.822;7.564;2024-03-08T00:13:33;22.03;;;16.93;;
4646;SDS011;2336;47.822;7.564;2024-03-08T00:16:00;20.07;;;16.50;;
4646;SDS011;2336;47.822;7.564;2024-03-08T00:18:27;22.07;;;16.97;;
4646;SDS011;2336;47.822;7.564;2024-03-08T00:20:54;21.23;;;16.40;;
4646;SDS011;2336;47.822;7.564;2024-03-08T00:23:21;21.80;;;17.23;;
4646;SDS011;2336;47.822;7.564;2024-03-08T00:25:49;22.77;;;15.87;;
4646;SDS011;2336;47.822;7.564;2024-03-08T00:28:17;23.27;;;17.97;;
4646;SDS011;2336;47.822;7.564;2024-03-08T00:30:43;22.60;;;16.70;;
4646;SDS011;2336;47.822;7.564;2024-03-08T00:33:11;22.03;;;16.73;;
4646;SDS011;2336;47.822;7.564;2024-03-08T00:35:38;22.63;;;16.37;;
4646;SDS011;2336;47.822;7.564;2024-03-08T00:38:05;18.80;;;15.00;;
4646;SDS011;2336;47.822;7.564;2024-03-08T00:40:31;19.70;;;15.20;;
4646;SDS011;2336;47.822;7.564;2024-03-08T00:42:59;28.27;;;19.73;;
4646;SDS011;2336;47.822;7.564;2024-03-08T00:45:28;27.17;;;18.90;;
4646;SDS011;2336;47.822;7.564;2024-03-08T00:47:55;31.30;;;21.13;;
4646;SDS011;2336;47.822;7.564;2024-03-08T00:50:22;22.23;;;17.00;;
4646;SDS011;2336;47.822;7.564;2024-03-08T00:52:49;21.57;;;16.50;;
4646;SDS011;2336;47.822;7.564;2024-03-08T00:55:16;23.57;;;16.30;;
4646;SDS011;2336;47.822;7.564;2024-03-08T00:57:43;19.10;;;14.47;;
4646;SDS011;2336;47.822;7.564;2024-03-08T01:00:11;18.80;;;14.60;;
4646;SDS011;2336;47.822;7.564;2024-03-08T01:02:38;19.57;;;15.17;;
4646;SDS011;2336;47.822;7.564;2024-03-08T01:05:05;16.77;;;14.00;;
4646;SDS011;2336;47.822;7.564;2024-03-08T01:07:33;19.73;;;14.60;;
4646;SDS011;2336;47.822;7.564;2024-03-08T01:10:00;19.70;;;15.27;;
4646;SDS011;2336;47.822;7.564;2024-03-08T01:12:28;15.70;;;13.47;;
4646;SDS011;2336;47.822;7.564;2024-03-08T01:14:55;17.70;;;13.67;;
4646;SDS011;2336;47.822;7.564;2024-03-08T01:17:24;17.50;;;14.10;;
4646;SDS011;2336;47.822;7.564;2024-03-08T01:19:51;16.80;;;13.50;;
4646;SDS011;2336;47.822;7.564;2024-03-08T01:22:18;17.63;;;14.17;;
4646;SDS011;2336;47.822;7.564;2024-03-08T01:24:45;17.93;;;14.10;;
4646;SDS011;2336;47.822;7.564;2024-03-08T01:27:12;17.30;;;13.90;;
4646;SDS011;2336;47.822;7.564;2024-03-08T01:29:38;17.07;;;13.70;;
4646;SDS011;2336;47.822;7.564;2024-03-08T01:32:05;15.00;;;12.63;;
4646;SDS011;2336;47.822;7.564;2024-03-08T01:34:33;15.70;;;12.13;;
4646;SDS011;2336;47.822;7.564;2024-03-08T01:37:00;17.73;;;13.47;;
4646;SDS011;2336;47.822;7.564;2024-03-08T01:39:27;15.60;;;13.37;;
4646;SDS011;2336;47.822;7.564;2024-03-08T01:41:54;19.63;;;13.77;;
4646;SDS011;2336;47.822;7.564;2024-03-08T01:44:20;17.57;;;13.30;;
4646;SDS011;2336;47.822;7.564;2024-03-08T01:46:47;14.43;;;12.40;;
4646;SDS011;2336;47.822;7.564;2024-03-08T01:49:17;14.27;;;11.97;;
4646;SDS011;2336;47.822;7.564;2024-03-08T01:51:47;15.87;;;12.97;;
4646;SDS011;2336;47.822;7.564;2024-03-08T01:54:15;15.23;;;12.90;;
4646;SDS011;2336;47.822;7.564;2024-03-08T01:56:45;18.60;;;13.63;;
4646;SDS011;2336;47.822;7.564;2024-03-08T01:59:12;16.17;;;13.27;;
4646;SDS011;2336;47.822;7.564;2024-03-08T02:01:39;18.23;;;13.37;;
4646;SDS011;2336;47.822;7.564;2024-03-08T02:04:07;18.87;;;13.67;;
4646;SDS011;2336;47.822;7.564;2024-03-08T02:06:34;15.90;;;12.47;;
4646;SDS011;2336;47.822;7.564;2024-03-08T02:09:02;17.03;;;13.00;;
4646;SDS011;2336;47.822;7.564;2024-03-08T02:11:30;18.27;;;14.10;;
4646;SDS011;2336;47.822;7.564;2024-03-08T02:13:58;17.20;;;14.13;;
4646;SDS011;2336;47.822;7.564;2024-03-08T02:16:24;19.07;;;14.80;;
4646;SDS011;2336;47.822;7.564;2024-03-08T02:18:51;18.73;;;14.70;;
4646;SDS011;2336;47.822;7.564;2024-03-08T02:21:19;18.13;;;14.17;;
4646;SDS011;2336;47.822;7.564;2024-03-08T02:23:46;19.33;;;14.73;;
4646;SDS011;2336;47.822;7.564;2024-03-08T02:26:13;17.07;;;14.03;;
4646;SDS011;2336;47.822;7.564;2024-03-08T02:28:40;17.87;;;14.37;;
4646;SDS011;2336;47.822;7.564;2024-03-08T02:31:08;20.33;;;14.87;;
4646;SDS011;2336;47.822;7.564;2024-03-08T02:33:35;17.27;;;13.50;;
4646;SDS011;2336;47.822;7.564;2024-03-08T02:36:02;18.10;;;13.23;;
4646;SDS011;2336;47.822;7.564;2024-03-08T02:38:32;18.70;;;15.00;;
4646;SDS011;2336;47.822;7.564;2024-03-08T02:40:59;19.07;;;15.27;;
4646;SDS011;2336;47.822;7.564;2024-03-08T02:43:26;18.67;;;15.03;;
4646;SDS011;2336;47.822;7.564;2024-03-08T02:45:52;16.93;;;13.40;;
4646;SDS011;2336;47.822;7.564;2024-03-08T02:48:19;17.63;;;13.30;;
4646;SDS011;2336;47.822;7.564;2024-03-08T02:50:46;19.83;;;14.20;;
4646;SDS011;2336;47.822;7.564;2024-03-08T02:53:16;20.13;;;14.37;;
4646;SDS011;2336;47.822;7.564;2024-03-08T02:55:45;18.63;;;14.00;;
4646;SDS011;2336;47.822;7.564;2024-03-08T02:58:12;18.20;;;14.87;;
4646;SDS011;2336;47.822;7.564;2024-03-08T03:00:39;19.90;;;15.20;;
4646;SDS011;2336;47.822;7.564;2024-03-08T03:03:06;18.87;;;15.30;;
4646;SDS011;2336;47.822;7.564;2024-03-08T03:05:32;19.70;;;15.83;;
4646;SDS011;2336;47.822;7.564;2024-03-08T03:07:59;21.27;;;14.93;;
4646;SDS011;2336;47.822;7.564;2024-03-08T03:10:26;19.47;;;15.00;;
4646;SDS011;2336;47.822;7.564;2024-03-08T03:12:54;18.30;;;14.20;;
4646;SDS011;2336;47.822;7.564;2024-03-08T03:15:21;21.97;;;15.50;;
4646;SDS011;2336;47.822;7.564;2024-03-08T03:17:47;16.60;;;13.63;;
4646;SDS011;2336;47.822;7.564;2024-03-08T03:20:16;15.40;;;13.27;;
4646;SDS011;2336;47.822;7.564;2024-03-08T03:22:48;17.90;;;13.50;;
4646;SDS011;2336;47.822;7.564;2024-03-08T03:25:17;15.30;;;11.93;;
4646;SDS011;2336;47.822;7.564;2024-03-08T03:27:48;17.17;;;13.20;;
4646;SDS011;2336;47.822;7.564;2024-03-08T03:30:17;22.17;;;15.00;;
4646;SDS011;2336;47.822;7.564;2024-03-08T03:32:47;18.50;;;13.63;;
4646;SDS011;2336;47.822;7.564;2024-03-08T03:35:14;17.63;;;13.23;;
4646;SDS011;2336;47.822;7.564;2024-03-08T03:37:42;21.07;;;15.40;;
4646;SDS011;2336;47.822;7.564;2024-03-08T03:40:11;18.37;;;14.20;;
4646;SDS011;2336;47.822;7.564;2024-03-08T03:42:39;18.50;;;14.30;;
4646;SDS011;2336;47.822;7.564;2024-03-08T03:45:06;21.97;;;13.67;;
4646;SDS011;2336;47.822;7.564;2024-03-08T03:47:35;19.37;;;14.20;;
4646;SDS011;2336;47.822;7.564;2024-03-08T03:50:03;17.73;;;14.30;;
4646;SDS011;2336;47.822;7.564;2024-03-08T03:52:31;17.53;;;13.53;;
4646;SDS011;2336;47.822;7.564;2024-03-08T03:54:58;21.27;;;14.70;;
4646;SDS011;2336;47.822;7.564;2024-03-08T03:57:25;20.70;;;15.40;;
4646;SDS011;2336;47.822;7.564;2024-03-08T03:59:52;18.53;;;14.30;;
4646;SDS011;2336;47.822;7.564;2024-03-08T04:02:18;16.77;;;13.47;;
4646;SDS011;2336;47.822;7.564;2024-03-08T04:04:47;17.80;;;13.90;;
4646;SDS011;2336;47.822;7.564;2024-03-08T04:07:14;18.53;;;13.83;;
4646;SDS011;2336;47.822;7.564;2024-03-08T04:09:41;18.97;;;14.97;;
4646;SDS011;2336;47.822;7.564;2024-03-08T04:12:08;19.67;;;14.00;;
4646;SDS011;2336;47.822;7.564;2024-03-08T04:14:35;19.40;;;15.03;;
4646;SDS011;2336;47.822;7.564;2024-03-08T04:17:02;29.50;;;20.97;;
4646;SDS011;2336;47.822;7.564;2024-03-08T04:19:28;25.60;;;19.93;;
4646;SDS011;2336;47.822;7.564;2024-03-08T04:21:57;30.00;;;21.07;;
4646;SDS011;2336;47.822;7.564;2024-03-08T04:24:23;24.17;;;18.17;;
4646;SDS011;2336;47.822;7.564;2024-03-08T04:26:50;23.87;;;16.80;;
4646;SDS011;2336;47.822;7.564;2024-03-08T04:29:18;20.17;;;15.07;;
4646;SDS011;2336;47.822;7.564;2024-03-08T04:31:45;20.37;;;15.27;;
4646;SDS011;2336;47.822;7.564;2024-03-08T04:34:12;19.40;;;14.50;;
4646;SDS011;2336;47.822;7.564;2024-03-08T04:36:39;21.70;;;15.80;;
4646;SDS011;2336;47.822;7.564;2024-03-08T04:39:07;21.03;;;16.40;;
4646;SDS011;2336;47.822;7.564;2024-03-08T04:41:37;22.60;;;16.33;;
4646;SDS011;2336;47.822;7.564;2024-03-08T04:44:04;21.77;;;15.00;;
4646;SDS011;2336;47.822;7.564;2024-03-08T04:46:31;19.90;;;15.50;;
4646;SDS011;2336;47.822;7.564;2024-03-08T04:49:00;21.67;;;15.30;;
4646;SDS011;2336;47.822;7.564;2024-03-08T04:51:27;18.73;;;14.57;;
4646;SDS011;2336;47.822;7.564;2024-03-08T04:53:54;20.00;;;15.13;;
4646;SDS011;2336;47.822;7.564;2024-03-08T04:56:23;20.27;;;14.50;;
4646;SDS011;2336;47.822;7.564;2024-03-08T04:58:50;22.33;;;15.17;;
4646;SDS011;2336;47.822;7.564;2024-03-08T05:01:17;21.00;;;14.77;;
4646;SDS011;2336;47.822;7.564;2024-03-08T05:03:44;20.67;;;16.00;;
4646;SDS011;2336;47.822;7.564;2024-03-08T05:06:12;22.80;;;16.47;;
4646;SDS011;2336;47.822;7.564;2024-03-08T05:08:39;19.17;;;14.83;;
4646;SDS011;2336;47.822;7.564;2024-03-08T05:11:06;20.53;;;14.60;;
4646;SDS011;2336;47.822;7.564;2024-03-08T05:13:34;22.47;;;16.07;;
4646;SDS011;2336;47.822;7.564;2024-03-08T05:16:00;21.60;;;15.40;;
4646;SDS011;2336;47.822;7.564;2024-03-08T05:18:27;22.83;;;15.67;;
4646;SDS011;2336;47.822;7.564;2024-03-08T05:20:56;21.47;;;15.83;;
4646;SDS011;2336;47.822;7.564;2024-03-08T05:23:22;21.60;;;14.90;;
4646;SDS011;2336;47.822;7.564;2024-03-08T05:25:49;19.90;;;15.17;;
4646;SDS011;2336;47.822;7.564;2024-03-08T05:28:16;20.63;;;15.30;;
4646;SDS011;2336;47.822;7.564;2024-03-08T05:30:44;23.90;;;16.27;;
4646;SDS011;2336;47.822;7.564;2024-03-08T05:33:11;19.50;;;14.70;;
4646;SDS011;2336;47.822;7.564;2024-03-08T05:35:39;22.47;;;16.30;;
4646;SDS011;2336;47.822;7.564;2024-03-08T05:38:06;18.60;;;15.30;;
4646;SDS011;2336;47.822;7.564;2024-03-08T05:40:33;25.30;;;14.70;;
4646;SDS011;2336;47.822;7.564;2024-03-08T05:42:59;22.90;;;16.43;;
4646;SDS011;2336;47.822;7.564;2024-03-08T05:45:26;20.27;;;15.90;;
4646;SDS011;2336;47.822;7.564;2024-03-08T05:47:54;20.60;;;15.80;;
4646;SDS011;2336;47.822;7.564;2024-03-08T05:50:21;24.27;;;15.23;;
4646;SDS011;2336;47.822;7.564;2024-03-08T05:52:48;21.93;;;15.90;;
4646;SDS011;2336;47.822;7.564;2024-03-08T05:55:15;21.97;;;16.00;;
4646;SDS011;2336;47.822;7.564;2024-03-08T05:57:42;26.10;;;18.73;;
4646;SDS011;2336;47.822;7.564;2024-03-08T06:00:09;28.27;;;19.40;;
4646;SDS011;2336;47.822;7.564;2024-03-08T06:02:37;26.63;;;18.97;;
4646;SDS011;2336;47.822;7.564;2024-03-08T06:05:08;27.27;;;19.80;;
4646;SDS011;2336;47.822;7.564;2024-03-08T06:07:35;32.07;;;21.40;;
4646;SDS011;2336;47.822;7.564;2024-03-08T06:10:05;40.90;;;26.30;;
4646;SDS011;2336;47.822;7.564;2024-03-08T06:12:35;32.80;;;21.10;;
4646;SDS011;2336;47.822;7.564;2024-03-08T06:15:05;35.83;;;24.07;;
4646;SDS011;2336;47.822;7.564;2024-03-08T06:17:32;35.83;;;23.63;;
4646;SDS011;2336;47.822;7.564;2024-03-08T06:19:59;34.93;;;23.27;;
4646;SDS011;2336;47.822;7.564;2024-03-08T06:22:27;37.23;;;25.07;;
4646;SDS011;2336;47.822;7.564;2024-03-08T06:24:55;44.83;;;28.00;;
4646;SDS011;2336;47.822;7.564;2024-03-08T06:27:22;37.60;;;25.80;;
4646;SDS011;2336;47.822;7.564;2024-03-08T06:29:49;37.47;;;24.43;;
4646;SDS011;2336;47.822;7.564;2024-03-08T06:32:15;33.63;;;23.07;;
4646;SDS011;2336;47.822;7.564;2024-03-08T06:34:42;31.70;;;21.47;;
4646;SDS011;2336;47.822;7.564;2024-03-08T06:37:09;39.40;;;23.00;;
4646;SDS011;2336;47.822;7.564;2024-03-08T06:39:37;31.63;;;23.07;;
4646;SDS011;2336;47.822;7.564;2024-03-08T06:42:03;28.57;;;20.83;;
4646;SDS011;2336;47.822;7.564;2024-03-08T06:44:31;32.83;;;22.30;;
4646;SDS011;2336;47.822;7.564;2024-03-08T06:46:57;29.50;;;21.87;;
4646;SDS011;2336;47.822;7.564;2024-03-08T06:49:25;30.23;;;20.33;;
4646;SDS011;2336;47.822;7.564;2024-03-08T06:51:52;29.23;;;21.20;;
4646;SDS011;2336;47.822;7.564;2024-03-08T06:54:19;28.63;;;20.20;;
4646;SDS011;2336;47.822;7.564;2024-03-08T06:56:47;25.40;;;19.40;;
4646;SDS011;2336;47.822;7.564;2024-03-08T06:59:14;30.90;;;20.67;;
4646;SDS011;2336;47.822;7.564;2024-03-08T07:01:43;24.93;;;18.47;;
4646;SDS011;2336;47.822;7.564;2024-03-08T07:04:09;27.70;;;20.27;;
4646;SDS011;2336;47.822;7.564;2024-03-08T07:06:36;27.13;;;20.10;;
4646;SDS011;2336;47.822;7.564;2024-03-08T07:09:03;30.83;;;21.83;;
4646;SDS011;2336;47.822;7.564;2024-03-08T07:11:30;32.87;;;23.17;;
4646;SDS011;2336;47.822;7.564;2024-03-08T07:13:58;34.50;;;23.37;;
4646;SDS011;2336;47.822;7.564;2024-03-08T07:16:28;30.17;;;22.07;;
4646;SDS011;2336;47.822;7.564;2024-03-08T07:18:54;33.33;;;23.30;;
4646;SDS011;2336;47.822;7.564;2024-03-08T07:21:21;31.97;;;23.07;;
4646;SDS011;2336;47.822;7.564;2024-03-08T07:23:49;39.80;;;27.07;;
4646;SDS011;2336;47.822;7.564;2024-03-08T07:26:36;37.57;;;26.80;;
4646;SDS011;2336;47.822;7.564;2024-03-08T07:29:04;38.73;;;29.03;;
4646;SDS011;2336;47.822;7.564;2024-03-08T07:31:30;40.40;;;26.97;;
4646;SDS011;2336;47.822;7.564;2024-03-08T07:34:15;32.90;;;26.10;;
4646;SDS011;2336;47.822;7.564;2024-03-08T07:36:42;32.03;;;24.03;;
4646;SDS011;2336;47.822;7.564;2024-03-08T07:39:09;34.57;;;22.93;;
4646;SDS011;2336;47.822;7.564;2024-03-08T07:41:36;34.10;;;23.17;;
4646;SDS011;2336;47.822;7.564;2024-03-08T07:44:06;32.80;;;23.00;;
4646;SDS011;2336;47.822;7.564;2024-03-08T07:46:33;31.00;;;22.50;;
4646;SDS011;2336;47.822;7.564;2024-03-08T07:49:00;33.97;;;23.33;;
4646;SDS011;2336;47.822;7.564;2024-03-08T07:51:26;35.57;;;21.90;;
4646;SDS011;2336;47.822;7.564;2024-03-08T07:53:53;35.07;;;23.77;;
4646;SDS011;2336;47.822;7.564;2024-03-08T07:56:21;35.10;;;22.97;;
4646;SDS011;2336;47.822;7.564;2024-03-08T07:58:47;30.40;;;22.33;;
4646;SDS011;2336;47.822;7.564;2024-03-08T08:01:18;31.20;;;22.60;;
4646;SDS011;2336;47.822;7.564;2024-03-08T08:03:45;34.03;;;23.63;;
4646;SDS011;2336;47.822;7.564;2024-03-08T08:06:14;32.50;;;23.63;;
4646;SDS011;2336;47.822;7.564;2024-03-08T08:08:41;41.00;;;25.50;;
4646;SDS011;2336;47.822;7.564;2024-03-08T08:11:08;38.13;;;25.97;;
4646;SDS011;2336;47.822;7.564;2024-03-08T08:13:36;32.97;;;24.07;;
4646;SDS011;2336;47.822;7.564;2024-03-08T08:16:04;38.53;;;26.83;;
4646;SDS011;2336;47.822;7.564;2024-03-08T08:18:33;39.80;;;27.13;;
4646;SDS011;2336;47.822;7.564;2024-03-08T08:21:01;39.40;;;26.50;;
4646;SDS011;2336;47.822;7.564;2024-03-08T08:23:27;36.73;;;27.20;;
4646;SDS011;2336;47.822;7.564;2024-03-08T08:25:54;39.17;;;26.97;;
4646;SDS011;2336;47.822;7.564;2024-03-08T08:28:21;37.53;;;27.37;;
4646;SDS011;2336;47.822;7.564;2024-03-08T08:30:48;42.83;;;29.40;;
4646;SDS011;2336;47.822;7.564;2024-03-08T08:33:15;36.73;;;25.93;;
4646;SDS011;2336;47.822;7.564;2024-03-08T08:35:43;40.80;;;28.10;;
4646;SDS011;2336;47.822;7.564;2024-03-08T08:38:09;36.07;;;25.47;;
4646;SDS011;2336;47.822;7.564;2024-03-08T08:40:36;37.57;;;26.83;;
4646;SDS011;2336;47.822;7.564;2024-03-08T08:43:03;43.90;;;28.50;;
4646;SDS011;2336;47.822;7.564;2024-03-08T08:45:30;42.40;;;28.00;;
4646;SDS011;2336;47.822;7.564;2024-03-08T08:47:58;35.00;;;27.30;;
4646;SDS011;2336;47.822;7.564;2024-03-08T08:50:25;42.73;;;27.90;;
4646;SDS011;2336;47.822;7.564;2024-03-08T08:52:54;39.10;;;27.77;;
4646;SDS011;2336;47.822;7.564;2024-03-08T08:55:22;39.97;;;29.37;;
4646;SDS011;2336;47.822;7.564;2024-03-08T08:57:50;34.13;;;25.60;;
4646;SDS011;2336;47.822;7.564;2024-03-08T09:00:18;32.90;;;24.73;;
4646;SDS011;2336;47.822;7.564;2024-03-08T09:02:45;38.30;;;27.77;;
4646;SDS011;2336;47.822;7.564;2024-03-08T09:05:13;33.30;;;24.57;;
4646;SDS011;2336;47.822;7.564;2024-03-08T09:07:41;37.40;;;26.83;;
4646;SDS011;2336;47.822;7.564;2024-03-08T09:10:11;37.03;;;27.20;;
4646;SDS011;2336;47.822;7.564;2024-03-08T09:12:39;36.27;;;26.70;;
4646;SDS011;2336;47.822;7.564;2024-03-08T09:15:07;39.03;;;28.87;;
4646;SDS011;2336;47.822;7.564;2024-03-08T09:17:35;38.20;;;28.13;;
4646;SDS011;2336;47.822;7.564;2024-03-08T09:20:05;35.90;;;26.70;;
4646;SDS011;2336;47.822;7.564;2024-03-08T09:22:32;33.63;;;25.60;;
4646;SDS011;2336;47.822;7.564;2024-03-08T09:24:58;38.13;;;27.33;;
4646;SDS011;2336;47.822;7.564;2024-03-08T09:27:26;36.53;;;26.83;;
4646;SDS011;2336;47.822;7.564;2024-03-08T09:29:53;38.30;;;26.17;;
4646;SDS011;2336;47.822;7.564;2024-03-08T09:32:20;39.13;;;28.73;;
4646;SDS011;2336;47.822;7.564;2024-03-08T09:34:47;32.33;;;25.40;;
4646;SDS011;2336;47.822;7.564;2024-03-08T09:37:15;39.73;;;28.97;;
4646;SDS011;2336;47.822;7.564;2024-03-08T09:39:42;34.30;;;27.27;;
4646;SDS011;2336;47.822;7.564;2024-03-08T09:42:09;37.00;;;29.30;;
4646;SDS011;2336;47.822;7.564;2024-03-08T09:44:41;38.97;;;28.13;;
4646;SDS011;2336;47.822;7.564;2024-03-08T09:47:11;37.70;;;28.40;;
4646;SDS011;2336;47.822;7.564;2024-03-08T09:49:40;34.20;;;27.17;;
4646;SDS011;2336;47.822;7.564;2024-03-08T09:52:08;34.13;;;24.93;;
4646;SDS011;2336;47.822;7.564;2024-03-08T09:54:37;36.10;;;27.80;;
4646;SDS011;2336;47.822;7.564;2024-03-08T09:57:04;37.47;;;27.33;;
4646;SDS011;2336;47.822;7.564;2024-03-08T09:59:33;35.53;;;25.50;;
4646;SDS011;2336;47.822;7.564;2024-03-08T10:02:15;34.90;;;25.80;;
4646;SDS011;2336;47.822;7.564;2024-03-08T10:04:43;32.50;;;26.10;;
4646;SDS011;2336;47.822;7.564;2024-03-08T10:07:12;32.20;;;24.90;;
4646;SDS011;2336;47.822;7.564;2024-03-08T10:09:39;33.70;;;23.67;;
4646;SDS011;2336;47.822;7.564;2024-03-08T10:12:07;32.27;;;25.10;;
4646;SDS011;2336;47.822;7.564;2024-03-08T10:14:38;35.00;;;26.40;;
4646;SDS011;2336;47.822;7.564;2024-03-08T10:17:06;35.50;;;27.57;;
4646;SDS011;2336;47.822;7.564;2024-03-08T10:19:35;34.90;;;26.40;;
4646;SDS011;2336;47.822;7.564;2024-03-08T10:22:02;32.60;;;25.53;;
4646;SDS011;2336;47.822;7.564;2024-03-08T10:24:29;33.87;;;24.73;;
4646;SDS011;2336;47.822;7.564;2024-03-08T10:26:58;29.80;;;24.20;;
4646;SDS011;2336;47.822;7.564;2024-03-08T10:29:27;33.50;;;25.83;;
4646;SDS011;2336;47.822;7.564;2024-03-08T10:31:54;34.07;;;26.20;;
4646;SDS011;2336;47.822;7.564;2024-03-08T10:34:22;27.87;;;23.10;;
4646;SDS011;2336;47.822;7.564;2024-03-08T10:36:51;31.97;;;25.83;;
4646;SDS011;2336;47.822;7.564;2024-03-08T10:39:21;31.17;;;24.97;;
4646;SDS011;2336;47.822;7.564;2024-03-08T10:41:52;32.10;;;25.60;;
4646;SDS011;2336;47.822;7.564;2024-03-08T10:44:26;32.47;;;23.70;;
4646;SDS011;2336;47.822;7.564;2024-03-08T10:47:08;29.83;;;23.40;;
4646;SDS011;2336;47.822;7.564;2024-03-08T10:49:44;29.30;;;23.50;;
4646;SDS011;2336;47.822;7.564;2024-03-08T10:52:18;29.13;;;23.43;;
4646;SDS011;2336;47.822;7.564;2024-03-08T10:54:45;29.20;;;24.07;;
4646;SDS011;2336;47.822;7.564;2024-03-08T10:57:14;31.47;;;24.30;;
4646;SDS011;2336;47.822;7.564;2024-03-08T10:59:44;31.07;;;24.63;;
4646;SDS011;2336;47.822;7.564;2024-03-08T11:02:14;34.87;;;23.50;;
4646;SDS011;2336;47.822;7.564;2024-03-08T11:04:47;30.40;;;23.00;;
4646;SDS011;2336;47.822;7.564;2024-03-08T11:07:14;28.10;;;23.40;;
4646;SDS011;2336;47.822;7.564;2024-03-08T11:09:46;32.53;;;22.80;;
4646;SDS011;2336;47.822;7.564;2024-03-08T11:12:21;30.90;;;23.60;;
4646;SDS011;2336;47.822;7.564;2024-03-08T11:14:50;31.60;;;23.40;;
4646;SDS011;2336;47.822;7.564;2024-03-08T11:17:20;31.33;;;22.90;;
4646;SDS011;2336;47.822;7.564;2024-03-08T11:19:52;28.70;;;23.10;;
4646;SDS011;2336;47.822;7.564;2024-03-08T11:22:23;30.20;;;24.90;;
4646;SDS011;2336;47.822;7.564;2024-03-08T11:24:59;29.83;;;23.17;;
4646;SDS011;2336;47.822;7.564;2024-03-08T11:27:33;28.87;;;22.77;;
4646;SDS011;2336;47.822;7.564;2024-03-08T11:30:02;29.60;;;22.57;;
4646;SDS011;2336;47.822;7.564;2024-03-08T11:32:36;27.33;;;22.80;;
4646;SDS011;2336;47.822;7.564;2024-03-08T11:35:05;25.80;;;22.30;;
4646;SDS011;2336;47.822;7.564;2024-03-08T11:37:34;27.57;;;21.47;;
4646;SDS011;2336;47.822;7.564;2024-03-08T11:40:02;29.27;;;22.50;;
4646;SDS011;2336;47.822;7.564;2024-03-08T11:42:39;27.37;;;21.20;;
4646;SDS011;2336;47.822;7.564;2024-03-08T11:45:08;26.43;;;22.17;;
4646;SDS011;2336;47.822;7.564;2024-03-08T11:47:36;26.97;;;20.30;;
4646;SDS011;2336;47.822;7.564;2024-03-08T11:50:05;27.30;;;21.80;;
4646;SDS011;2336;47.822;7.564;2024-03-08T11:52:36;26.50;;;21.00;;
4646;SDS011;2336;47.822;7.564;2024-03-08T11:55:04;27.60;;;21.67;;
4646;SDS011;2336;47.822;7.564;2024-03-08T11:57:32;27.90;;;20.97;;
4646;SDS011;2336;47.822;7.564;2024-03-08T11:59:59;26.97;;;22.13;;
4646;SDS011;2336;47.822;7.564;2024-03-08T12:02:31;26.27;;;22.57;;
4646;SDS011;2336;47.822;7.564;2024-03-08T12:05:00;25.97;;;21.17;;
4646;SDS011;2336;47.822;7.564;2024-03-08T12:07:28;24.10;;;20.10;;
4646;SDS011;2336;47.822;7.564;2024-03-08T12:10:17;26.27;;;20.93;;
4646;SDS011;2336;47.822;7.564;2024-03-08T12:12:45;28.23;;;20.80;;
4646;SDS011;2336;47.822;7.564;2024-03-08T12:15:12;26.43;;;20.43;;
4646;SDS011;2336;47.822;7.564;2024-03-08T12:17:41;24.63;;;20.57;;
4646;SDS011;2336;47.822;7.564;2024-03-08T12:20:12;24.80;;;20.67;;
4646;SDS011;2336;47.822;7.564;2024-03-08T12:22:41;29.53;;;22.30;;
4646;SDS011;2336;47.822;7.564;2024-03-08T12:25:07;26.73;;;21.90;;
4646;SDS011;2336;47.822;7.564;2024-03-08T12:27:37;25.03;;;20.70;;
4646;SDS011;2336;47.822;7.564;2024-03-08T12:30:21;30.40;;;22.17;;
4646;SDS011;2336;47.822;7.564;2024-03-08T12:32:52;27.73;;;22.90;;
4646;SDS011;2336;47.822;7.564;2024-03-08T12:35:21;26.80;;;21.60;;
4646;SDS011;2336;47.822;7.564;2024-03-08T12:37:50;30.60;;;22.60;;
4646;SDS011;2336;47.822;7.564;2024-03-08T12:40:18;29.73;;;22.20;;
4646;SDS011;2336;47.822;7.564;2024-03-08T12:42:47;27.67;;;21.47;;
4646;SDS011;2336;47.822;7.564;2024-03-08T12:45:14;26.63;;;22.10;;
4646;SDS011;2336;47.822;7.564;2024-03-08T12:47:41;28.47;;;22.43;;
4646;SDS011;2336;47.822;7.564;2024-03-08T12:50:08;24.87;;;22.20;;
4646;SDS011;2336;47.822;7.564;2024-03-08T12:52:36;29.60;;;23.47;;
4646;SDS011;2336;47.822;7.564;2024-03-08T12:55:03;28.70;;;24.77;;
4646;SDS011;2336;47.822;7.564;2024-03-08T12:57:32;27.90;;;23.80;;
4646;SDS011;2336;47.822;7.564;2024-03-08T13:00:02;33.10;;;26.37;;
4646;SDS011;2336;47.822;7.564;2024-03-08T13:02:29;32.50;;;25.70;;
4646;SDS011;2336;47.822;7.564;2024-03-08T13:04:57;31.30;;;25.43;;
4646;SDS011;2336;47.822;7.564;2024-03-08T13:07:24;30.30;;;24.77;;
4646;SDS011;2336;47.822;7.564;2024-03-08T13:09:52;29.23;;;24.07;;
4646;SDS011;2336;47.822;7.564;2024-03-08T13:12:19;28.03;;;23.67;;
4646;SDS011;2336;47.822;7.564;2024-03-08T13:14:46;26.37;;;22.77;;
4646;SDS011;2336;47.822;7.564;2024-03-08T13:17:15;34.20;;;22.47;;
4646;SDS011;2336;47.822;7.564;2024-03-08T13:19:43;30.40;;;24.17;;
4646;SDS011;2336;47.822;7.564;2024-03-08T13:22:10;26.17;;;22.07;;
4646;SDS011;2336;47.822;7.564;2024-03-08T13:24:38;25.93;;;21.00;;
4646;SDS011;2336;47.822;7.564;2024-03-08T13:27:06;24.57;;;21.43;;
4646;SDS011;2336;47.822;7.564;2024-03-08T13:29:44;25.83;;;21.43;;
4646;SDS011;2336;47.822;7.564;2024-03-08T13:32:12;30.97;;;23.47;;
4646;SDS011;2336;47.822;7.564;2024-03-08T13:34:41;26.10;;;22.60;;
4646;SDS011;2336;47.822;7.564;2024-03-08T13:37:08;27.00;;;22.10;;
4646;SDS011;2336;47.822;7.564;2024-03-08T13:39:36;27.93;;;23.20;;
4646;SDS011;2336;47.822;7.564;2024-03-08T13:42:08;25.43;;;20.70;;
4646;SDS011;2336;47.822;7.564;2024-03-08T13:44:37;25.33;;;21.47;;
4646;SDS011;2336;47.822;7.564;2024-03-08T13:47:05;26.67;;;21.00;;
4646;SDS011;2336;47.822;7.564;2024-03-08T13:49:33;24.47;;;21.30;;
4646;SDS011;2336;47.822;7.564;2024-03-08T13:52:01;21.93;;;18.97;;
4646;SDS011;2336;47.822;7.564;2024-03-08T13:54:29;21.53;;;18.40;;
4646;SDS011;2336;47.822;7.564;2024-03-08T13:56:56;20.60;;;16.73;;
4646;SDS011;2336;47.822;7.564;2024-03-08T13:59:23;19.63;;;16.30;;
4646;SDS011;2336;47.822;7.564;2024-03-08T14:01:54;21.20;;;16.33;;
4646;SDS011;2336;47.822;7.564;2024-03-08T14:04:22;18.57;;;16.43;;
4646;SDS011;2336;47.822;7.564;2024-03-08T14:06:50;18.67;;;15.90;;
4646;SDS011;2336;47.822;7.564;2024-03-08T14:09:21;22.60;;;16.60;;
4646;SDS011;2336;47.822;7.564;2024-03-08T14:11:49;18.20;;;15.30;;
4646;SDS011;2336;47.822;7.564;2024-03-08T14:14:18;19.13;;;16.00;;
4646;SDS011;2336;47.822;7.564;2024-03-08T14:16:46;16.80;;;15.10;;
4646;SDS011;2336;47.822;7.564;2024-03-08T14:19:13;16.20;;;14.60;;
4646;SDS011;2336;47.822;7.564;2024-03-08T14:21:40;17.40;;;15.50;;
4646;SDS011;2336;47.822;7.564;2024-03-08T14:24:08;16.23;;;14.43;;
4646;SDS011;2336;47.822;7.564;2024-03-08T14:26:35;16.87;;;15.00;;
4646;SDS011;2336;47.822;7.564;2024-03-08T14:29:03;16.80;;;15.20;;
4646;SDS011;2336;47.822;7.564;2024-03-08T14:31:30;17.20;;;15.30;;
4646;SDS011;2336;47.822;7.564;2024-03-08T14:33:58;18.00;;;15.60;;
4646;SDS011;2336;47.822;7.564;2024-03-08T14:36:25;22.83;;;18.60;;
4646;SDS011;2336;47.822;7.564;2024-03-08T14:38:52;17.13;;;15.33;;
4646;SDS011;2336;47.822;7.564;2024-03-08T14:41:20;16.57;;;14.67;;
4646;SDS011;2336;47.822;7.564;2024-03-08T14:43:47;16.30;;;14.60;;
4646;SDS011;2336;47.822;7.564;2024-03-08T14:46:14;16.10;;;14.30;;
4646;SDS011;2336;47.822;7.564;2024-03-08T14:48:42;15.93;;;14.33;;
4646;SDS011;2336;47.822;7.564;2024-03-08T14:51:09;17.93;;;16.00;;
4646;SDS011;2336;47.822;7.564;2024-03-08T14:53:39;19.53;;;14.77;;